Airfield :







YOU CAN JOIN US ON...

 
LOGIN :

Register | Disclaimer

   EN    FR    IT 

 









Legend :    VFR   Marginal VFR   IFR   Intensive IFR   Very Intensive IFR
Visi :
Ceiling :
>= 8 km
>= 3000ft
5 to 8 km
1000 to 3000 ft
1500m to 5 km
500 to 1000 ft
800 to 1500m
200 to 500 ft
< 800m
< 200 ft
Symbols :   Thunderstorms  Fog  Heavy snow  Heavy precipitations  Wind > 20 kt







- Airport Elevation : 342 ft


KCON - Concord Municipal

CURRENT METAR :
  • 221351Z AUTO 03006KT 10SM CLR 16/12 A3012 RMK AO2 SLP200 T01560122

EXPIRED METARs :
  • 221341Z AUTO 00000KT 10SM SCT002 14/12 A3012 RMK AO2 T01440122
  • 221314Z AUTO 00000KT 4SM BR BKN002 OVC006 11/11 A3013 RMK AO2 T01110111
  • 221251Z AUTO 14005KT 5SM BR OVC005 11/11 A3013 RMK AO2 CIG 001V009 SLP203 T01110106
  • 221203Z AUTO 00000KT 9SM BKN003 OVC008 10/10 A3013 RMK AO2 T01000100
  • 221151Z AUTO 36003KT 9SM SCT003 OVC007 10/10 A3013 RMK AO2 SLP203 70001 T01000100 10106 20083 53011

TAF KCON
Valid from the 22 at 14:00 until the 23 at 12:00 UTC


221402Z 2214/2312 02006KT P6SM SCT025
FM221700 04008KT P6SM OVC025
FM222000 03010KT 5SM -SHRA BR OVC015
FM230200 35008KT 4SM -SHRA BR OVC005
KZBW FIR / North America



MET'MAP, your aeronautical weather chart ! - Copyright ORBIFLY December 2007 - Disclaimer

ORBIFLY MET'MAP TEAM :

Programming & Development : Alexandra Zaïnal
Concept & Development : Baudouin d'Aumeries
Co-Development & Prog : Marc-Olivier Méhu
Technical & hardware support : Manuel Goepfert

Contact : metmap@orbifly.com




SOURCES & CREDITS :

   NOAA